Time;durP1;ratioP1;P1;durP2;ratioP2;P2;SDS_P1;SDS_P2;PMS_P1;PMS_P2;Temp;Humidity;BMP_temperature;BMP_pressure;BME280_temperature;BME280_humidity;BME280_pressure;Samples;Min_cycle;Max_cycle;Signal;HPM_P1;HPM_P2
2024/01/04 00:02:04;;;;;;;;;;;7.00;99.90;;;;;;5047325;28;19925;-34
2024/01/04 00:04:31;;;;;;;;;;;7.00;99.90;;;;;;5047940;28;19928;-33
2024/01/04 00:06:57;;;;;;;;;;;7.00;99.90;;;;;;5049427;28;19983;-33
2024/01/04 00:09:24;;;;;;;;;;;6.90;99.90;;;;;;5050752;28;19982;-34
2024/01/04 00:11:51;;;;;;;;;;;6.90;99.90;;;;;;5050510;28;20258;-34
2024/01/04 00:14:17;;;;;;;;;;;6.90;99.90;;;;;;5046067;28;20300;-34
2024/01/04 00:16:44;;;;;;;;;;;6.90;99.90;;;;;;5049423;28;19982;-34
2024/01/04 00:19:12;;;;;;;;;;;6.90;99.90;;;;;;5048526;28;19929;-35
2024/01/04 00:21:38;;;;;;;;;;;6.90;99.90;;;;;;5049804;28;19990;-36
2024/01/04 00:24:06;;;;;;;;;;;6.90;99.90;;;;;;5052220;28;19925;-32
2024/01/04 00:26:33;;;;;;;;;;;6.90;99.90;;;;;;5052008;28;19965;-33
2024/01/04 00:29:00;;;;;;;;;;;6.80;99.90;;;;;;5054014;28;19925;-33
2024/01/04 00:31:26;;;;;;;;;;;6.80;99.90;;;;;;5052751;28;20373;-33
2024/01/04 00:33:53;;;;;;;;;;;6.80;99.90;;;;;;5053027;28;20420;-33
2024/01/04 00:36:21;;;;;;;;;;;6.80;99.90;;;;;;5052778;28;19931;-34
2024/01/04 00:38:48;;;;;;;;;;;6.70;99.90;;;;;;5053017;28;19975;-33
2024/01/04 00:41:15;;;;;;;;;;;6.70;99.90;;;;;;5052512;28;19951;-34
2024/01/04 00:43:42;;;;;;;;;;;6.70;99.90;;;;;;5053183;28;19925;-33
2024/01/04 00:46:09;;;;;;;;;;;6.70;99.90;;;;;;5053021;28;19974;-35
2024/01/04 00:48:36;;;;;;;;;;;6.70;99.90;;;;;;5040143;28;19925;-33
2024/01/04 00:51:03;;;;;;;;;;;6.70;99.90;;;;;;5052000;28;19976;-33
2024/01/04 00:53:31;;;;;;;;;;;6.60;99.90;;;;;;5052362;28;19925;-33
2024/01/04 00:55:57;;;;;;;;;;;6.60;99.90;;;;;;5050955;28;19925;-35
2024/01/04 00:58:24;;;;;;;;;;;6.60;99.90;;;;;;5052942;28;19925;-34
2024/01/04 01:00:51;;;;;;;;;;;6.60;99.90;;;;;;5052649;28;19998;-33
2024/01/04 01:03:17;;;;;;;;;;;6.60;99.90;;;;;;5051859;28;19979;-34
2024/01/04 01:05:44;;;;;;;;;;;6.60;99.90;;;;;;5051688;28;19929;-34
2024/01/04 01:08:11;;;;;;;;;;;6.60;99.90;;;;;;5052858;28;19925;-33
2024/01/04 01:10:39;;;;;;;;;;;6.50;99.90;;;;;;5049308;28;19932;-33
2024/01/04 01:13:05;;;;;;;;;;;6.50;99.90;;;;;;5051586;28;20011;-33
2024/01/04 01:15:32;;;;;;;;;;;6.50;99.90;;;;;;5053685;28;19975;-33
2024/01/04 01:18:00;;;;;;;;;;;6.50;99.90;;;;;;5053178;28;19925;-34
2024/01/04 01:20:26;;;;;;;;;;;6.40;99.90;;;;;;5052735;28;19999;-34
2024/01/04 01:22:53;;;;;;;;;;;6.40;99.90;;;;;;5051994;28;19956;-34
2024/01/04 01:25:20;;;;;;;;;;;6.40;99.90;;;;;;5051263;28;19933;-33
2024/01/04 01:27:48;;;;;;;;;;;6.40;99.90;;;;;;5054484;28;19979;-33
2024/01/04 01:30:14;;;;;;;;;;;6.40;99.90;;;;;;5051666;28;19979;-33
2024/01/04 01:32:41;;;;;;;;;;;6.30;99.90;;;;;;5051629;28;20332;-34
2024/01/04 01:35:08;;;;;;;;;;;6.30;99.90;;;;;;5050944;28;19925;-33
2024/01/04 01:37:35;;;;;;;;;;;6.30;99.90;;;;;;5050684;28;20015;-35
2024/01/04 01:40:02;;;;;;;;;;;6.30;99.90;;;;;;5053086;28;19951;-34
2024/01/04 01:42:29;;;;;;;;;;;6.30;99.90;;;;;;5053254;28;19928;-34
2024/01/04 01:44:57;;;;;;;;;;;6.20;99.90;;;;;;5051851;28;20446;-32
2024/01/04 01:47:24;;;;;;;;;;;6.20;99.90;;;;;;5051602;28;19970;-34
2024/01/04 01:49:51;;;;;;;;;;;6.20;99.90;;;;;;5050862;28;19924;-32
2024/01/04 01:52:17;;;;;;;;;;;6.20;99.90;;;;;;5053501;28;19933;-36
2024/01/04 01:54:46;;;;;;;;;;;6.10;99.90;;;;;;5052182;28;19932;-34
2024/01/04 01:57:13;;;;;;;;;;;6.20;99.90;;;;;;5060814;28;20369;-33
2024/01/04 01:59:39;;;;;;;;;;;6.20;99.90;;;;;;5050409;28;19983;-35
2024/01/04 02:02:07;;;;;;;;;;;6.10;99.90;;;;;;5048963;28;19978;-35
2024/01/04 02:04:34;;;;;;;;;;;6.10;99.90;;;;;;5051750;28;19971;-35
2024/01/04 02:07:01;;;;;;;;;;;6.10;99.90;;;;;;5051333;28;19924;-35
2024/01/04 02:09:27;;;;;;;;;;;6.10;99.90;;;;;;5049698;28;19979;-35
2024/01/04 02:12:02;;;;;;;;;;;6.10;99.90;;;;;;5043105;28;20353;-35
2024/01/04 02:14:28;;;;;;;;;;;6.00;99.90;;;;;;5051597;28;19982;-36
2024/01/04 02:16:55;;;;;;;;;;;6.00;99.90;;;;;;5049937;28;19970;-34
2024/01/04 02:19:23;;;;;;;;;;;6.00;99.90;;;;;;5050462;28;20269;-34
2024/01/04 02:21:50;;;;;;;;;;;6.00;99.90;;;;;;5051249;28;20347;-35
2024/01/04 02:24:18;;;;;;;;;;;6.00;99.90;;;;;;5051074;28;19925;-35
2024/01/04 02:26:44;;;;;;;;;;;6.00;99.90;;;;;;5050194;28;19925;-35
2024/01/04 02:29:11;;;;;;;;;;;6.00;99.90;;;;;;5051489;28;19924;-34
2024/01/04 02:31:37;;;;;;;;;;;6.00;99.90;;;;;;5051128;28;19980;-36
2024/01/04 02:34:04;;;;;;;;;;;6.00;99.90;;;;;;5047930;28;20458;-35
2024/01/04 02:36:31;;;;;;;;;;;6.00;99.90;;;;;;5051082;28;19931;-35
2024/01/04 02:38:58;;;;;;;;;;;5.90;99.90;;;;;;5050705;28;21160;-34
2024/01/04 02:41:26;;;;;;;;;;;5.90;99.90;;;;;;5052179;28;20336;-35
2024/01/04 02:43:53;;;;;;;;;;;5.90;99.90;;;;;;5051338;28;20203;-36
2024/01/04 02:46:20;;;;;;;;;;;5.90;99.90;;;;;;5050802;28;19975;-34
2024/01/04 02:48:46;;;;;;;;;;;5.90;99.90;;;;;;5047687;28;19924;-34
2024/01/04 02:51:13;;;;;;;;;;;5.80;99.90;;;;;;5050858;28;19928;-35
2024/01/04 02:53:39;;;;;;;;;;;5.80;99.90;;;;;;5051828;28;20362;-34
2024/01/04 02:56:06;;;;;;;;;;;5.80;99.90;;;;;;5049159;28;19924;-35
2024/01/04 02:58:34;;;;;;;;;;;5.80;99.90;;;;;;5050860;28;19924;-34
2024/01/04 03:01:01;;;;;;;;;;;5.80;99.90;;;;;;5049048;28;19925;-34
2024/01/04 03:03:27;;;;;;;;;;;5.80;99.90;;;;;;5049459;28;20040;-35
2024/01/04 03:05:54;;;;;;;;;;;5.80;99.90;;;;;;5050458;28;20450;-35
2024/01/04 03:08:21;;;;;;;;;;;5.80;99.90;;;;;;5049861;28;19932;-35
2024/01/04 03:10:47;;;;;;;;;;;5.80;99.90;;;;;;5042217;28;19925;-34
2024/01/04 03:13:14;;;;;;;;;;;5.80;99.90;;;;;;5050731;28;19929;-35
2024/01/04 03:15:42;;;;;;;;;;;5.80;99.90;;;;;;5048876;28;19925;-33
2024/01/04 03:18:08;;;;;;;;;;;5.80;99.90;;;;;;5048536;28;19925;-34
2024/01/04 03:20:35;;;;;;;;;;;5.70;99.90;;;;;;5050467;28;20372;-33
2024/01/04 03:23:02;;;;;;;;;;;5.80;99.90;;;;;;5050888;28;19974;-33
2024/01/04 03:25:28;;;;;;;;;;;5.80;99.90;;;;;;5050165;28;20285;-36
2024/01/04 03:27:55;;;;;;;;;;;5.70;99.90;;;;;;5050106;28;19924;-34
2024/01/04 03:30:22;;;;;;;;;;;5.70;99.90;;;;;;5050138;28;19979;-33
2024/01/04 03:32:50;;;;;;;;;;;5.70;99.90;;;;;;5049514;28;19975;-35
2024/01/04 03:35:16;;;;;;;;;;;5.70;99.90;;;;;;5048615;28;20015;-34
2024/01/04 03:37:43;;;;;;;;;;;5.70;99.90;;;;;;5049693;28;19979;-33
2024/01/04 03:40:10;;;;;;;;;;;5.80;99.90;;;;;;5050192;28;19994;-34
2024/01/04 03:42:37;;;;;;;;;;;5.70;99.90;;;;;;5051118;28;19925;-35
2024/01/04 03:45:04;;;;;;;;;;;5.70;99.90;;;;;;5049166;28;19929;-35
2024/01/04 03:47:31;;;;;;;;;;;5.70;99.90;;;;;;5048241;28;19925;-35
2024/01/04 03:49:59;;;;;;;;;;;5.70;99.90;;;;;;5049594;28;19991;-34
2024/01/04 03:52:26;;;;;;;;;;;5.60;99.90;;;;;;5050110;28;20369;-34
2024/01/04 03:54:53;;;;;;;;;;;5.70;99.90;;;;;;5049910;28;20364;-35
2024/01/04 03:57:19;;;;;;;;;;;5.60;99.90;;;;;;5050812;28;20021;-35
2024/01/04 03:59:46;;;;;;;;;;;5.60;99.90;;;;;;5053857;28;20184;-34
2024/01/04 04:02:13;;;;;;;;;;;5.70;99.90;;;;;;5051892;28;19937;-34
2024/01/04 04:04:39;;;;;;;;;;;5.60;99.90;;;;;;5053677;28;19948;-35
2024/01/04 04:07:07;;;;;;;;;;;5.60;99.90;;;;;;5052836;28;20371;-34
2024/01/04 04:09:34;;;;;;;;;;;5.60;99.90;;;;;;5034870;28;19925;-34
2024/01/04 04:12:00;;;;;;;;;;;5.60;99.90;;;;;;5039958;28;19929;-34
2024/01/04 04:14:27;;;;;;;;;;;5.60;99.90;;;;;;5053532;28;19978;-35
2024/01/04 04:16:54;;;;;;;;;;;5.60;99.90;;;;;;5051847;28;20368;-35
2024/01/04 04:19:20;;;;;;;;;;;5.60;99.90;;;;;;5054418;28;19951;-37
2024/01/04 04:21:47;;;;;;;;;;;5.60;99.90;;;;;;5053765;28;20025;-34
2024/01/04 04:24:15;;;;;;;;;;;5.50;99.90;;;;;;5054436;28;19928;-35
2024/01/04 04:26:41;;;;;;;;;;;5.60;99.90;;;;;;5052533;28;20339;-34
2024/01/04 04:29:08;;;;;;;;;;;5.60;99.90;;;;;;5053506;28;19925;-34
2024/01/04 04:31:35;;;;;;;;;;;5.50;99.90;;;;;;5051194;28;19928;-34
2024/01/04 04:34:01;;;;;;;;;;;5.60;99.90;;;;;;5051446;28;19925;-33
2024/01/04 04:36:28;;;;;;;;;;;5.50;99.90;;;;;;5049207;28;19933;-33
2024/01/04 04:38:55;;;;;;;;;;;5.50;99.90;;;;;;5045418;28;20321;-33
2024/01/04 04:41:23;;;;;;;;;;;5.50;99.90;;;;;;5050824;28;19982;-33
2024/01/04 04:43:49;;;;;;;;;;;5.50;99.90;;;;;;5052677;28;20348;-33
2024/01/04 04:46:17;;;;;;;;;;;5.40;99.90;;;;;;5051473;28;19925;-35
2024/01/04 04:48:44;;;;;;;;;;;5.50;99.90;;;;;;5051807;28;19925;-33
2024/01/04 04:51:11;;;;;;;;;;;5.40;99.90;;;;;;5052436;28;19932;-35
2024/01/04 04:53:37;;;;;;;;;;;5.40;99.90;;;;;;5053067;28;20010;-34
2024/01/04 04:56:04;;;;;;;;;;;5.40;99.90;;;;;;5051418;28;20306;-34
2024/01/04 04:58:32;;;;;;;;;;;5.30;99.90;;;;;;5053900;28;19925;-34
2024/01/04 05:00:59;;;;;;;;;;;5.30;99.90;;;;;;5049650;28;19925;-33
2024/01/04 05:03:26;;;;;;;;;;;5.30;99.90;;;;;;5053379;28;19968;-34
2024/01/04 05:05:53;;;;;;;;;;;5.30;99.90;;;;;;5051775;28;19925;-34
2024/01/04 05:08:19;;;;;;;;;;;5.30;99.90;;;;;;5052206;28;19976;-34
2024/01/04 05:10:46;;;;;;;;;;;5.30;99.90;;;;;;5049575;28;19932;-34
2024/01/04 05:13:13;;;;;;;;;;;5.30;99.90;;;;;;5050350;28;19928;-33
2024/01/04 05:15:42;;;;;;;;;;;5.30;99.90;;;;;;5050654;28;19966;-33
2024/01/04 05:18:09;;;;;;;;;;;5.30;99.90;;;;;;5053118;28;19964;-33
2024/01/04 05:20:36;;;;;;;;;;;5.20;99.90;;;;;;5053050;28;19928;-34
2024/01/04 05:23:02;;;;;;;;;;;5.30;99.90;;;;;;5053365;28;19976;-33
2024/01/04 05:25:29;;;;;;;;;;;5.30;99.90;;;;;;5053723;28;20270;-33
2024/01/04 05:27:56;;;;;;;;;;;5.20;99.90;;;;;;5050788;28;19924;-35
2024/01/04 05:30:22;;;;;;;;;;;5.20;99.90;;;;;;5051527;28;19928;-33
2024/01/04 05:32:50;;;;;;;;;;;5.20;99.90;;;;;;5049960;28;19982;-35
2024/01/04 05:35:17;;;;;;;;;;;5.20;99.90;;;;;;5051832;28;19987;-33
2024/01/04 05:37:43;;;;;;;;;;;5.20;99.90;;;;;;5052817;28;19971;-34
2024/01/04 05:40:10;;;;;;;;;;;5.20;99.90;;;;;;5051710;28;19978;-33
2024/01/04 05:42:37;;;;;;;;;;;5.20;99.90;;;;;;5052556;28;19998;-34
2024/01/04 05:45:04;;;;;;;;;;;5.20;99.90;;;;;;5049133;28;20384;-34
2024/01/04 05:47:31;;;;;;;;;;;5.20;99.90;;;;;;5051205;28;20408;-35
2024/01/04 05:49:59;;;;;;;;;;;5.10;99.90;;;;;;5050579;28;19929;-33
2024/01/04 05:52:26;;;;;;;;;;;5.20;99.90;;;;;;5032699;28;19971;-34
2024/01/04 05:54:52;;;;;;;;;;;5.10;99.90;;;;;;5047552;28;19935;-36
2024/01/04 05:57:19;;;;;;;;;;;5.10;99.90;;;;;;5052931;28;19968;-34
2024/01/04 05:59:46;;;;;;;;;;;5.10;99.90;;;;;;5049477;28;19925;-33
2024/01/04 06:02:12;;;;;;;;;;;5.10;99.90;;;;;;5051410;28;19933;-34
2024/01/04 06:04:39;;;;;;;;;;;5.10;99.90;;;;;;5051513;28;19925;-34
2024/01/04 06:07:07;;;;;;;;;;;5.10;99.90;;;;;;5052656;28;19972;-34
2024/01/04 06:09:33;;;;;;;;;;;5.10;99.90;;;;;;5049922;28;20327;-33
2024/01/04 06:12:00;;;;;;;;;;;5.00;99.90;;;;;;5051443;28;19964;-35
2024/01/04 06:14:30;;;;;;;;;;;5.00;99.90;;;;;;5047026;28;19928;-34
2024/01/04 06:16:57;;;;;;;;;;;5.10;99.90;;;;;;5051107;28;19925;-34
2024/01/04 06:19:23;;;;;;;;;;;5.00;99.90;;;;;;5051975;28;20438;-33
2024/01/04 06:21:50;;;;;;;;;;;5.00;99.90;;;;;;5052107;28;19979;-33
2024/01/04 06:24:18;;;;;;;;;;;5.00;99.90;;;;;;5051158;28;19932;-32
2024/01/04 06:26:45;;;;;;;;;;;5.00;99.90;;;;;;5049372;28;19932;-33
2024/01/04 06:29:11;;;;;;;;;;;5.00;99.90;;;;;;5045631;28;20412;-33
2024/01/04 06:31:38;;;;;;;;;;;5.00;99.90;;;;;;5050010;28;20422;-33
2024/01/04 06:34:05;;;;;;;;;;;4.90;99.90;;;;;;5052979;28;19924;-33
2024/01/04 06:36:31;;;;;;;;;;;4.90;99.90;;;;;;5047267;28;19979;-34
2024/01/04 06:38:58;;;;;;;;;;;4.90;99.90;;;;;;5050183;28;19979;-33
2024/01/04 06:41:29;;;;;;;;;;;5.00;99.90;;;;;;5050746;28;19994;-33
2024/01/04 06:43:56;;;;;;;;;;;5.00;99.90;;;;;;5047891;28;20096;-34
2024/01/04 06:46:22;;;;;;;;;;;4.90;99.90;;;;;;5052053;28;19924;-35
2024/01/04 06:48:49;;;;;;;;;;;4.90;99.90;;;;;;5050971;28;19959;-34
2024/01/04 06:51:16;;;;;;;;;;;4.90;99.90;;;;;;5050678;28;19979;-33
2024/01/04 06:53:42;;;;;;;;;;;5.00;99.90;;;;;;5052003;28;20376;-34
2024/01/04 06:56:10;;;;;;;;;;;4.90;99.90;;;;;;5049747;28;19974;-34
2024/01/04 06:58:38;;;;;;;;;;;4.90;99.90;;;;;;5048422;28;19924;-34
2024/01/04 07:01:04;;;;;;;;;;;4.90;99.90;;;;;;5049127;28;19977;-35
2024/01/04 07:03:31;;;;;;;;;;;4.90;99.90;;;;;;5049272;28;19929;-32
2024/01/04 07:05:58;;;;;;;;;;;4.90;99.90;;;;;;5049677;28;19970;-33
2024/01/04 07:08:24;;;;;;;;;;;5.00;99.90;;;;;;5050827;28;19924;-33
2024/01/04 07:10:51;;;;;;;;;;;5.00;99.90;;;;;;5044779;28;19925;-34
2024/01/04 07:13:18;;;;;;;;;;;4.90;99.90;;;;;;5049268;28;19924;-33
2024/01/04 07:15:45;;;;;;;;;;;4.90;99.90;;;;;;5050425;28;19925;-34
2024/01/04 07:18:12;;;;;;;;;;;4.90;99.90;;;;;;5051359;28;19951;-34
2024/01/04 07:20:41;;;;;;;;;;;4.90;99.90;;;;;;5051526;28;19978;-32
2024/01/04 07:23:08;;;;;;;;;;;4.90;99.90;;;;;;5049823;28;19933;-33
2024/01/04 07:25:36;;;;;;;;;;;4.90;99.90;;;;;;5044922;28;20296;-35
2024/01/04 07:28:03;;;;;;;;;;;4.90;99.90;;;;;;5047451;28;19978;-34
2024/01/04 07:30:30;;;;;;;;;;;4.90;99.90;;;;;;5049146;28;19932;-33
2024/01/04 07:32:58;;;;;;;;;;;4.90;99.90;;;;;;5050776;28;20012;-34
2024/01/04 07:35:25;;;;;;;;;;;4.90;99.90;;;;;;5054576;28;19935;-34
2024/01/04 07:37:51;;;;;;;;;;;4.90;99.90;;;;;;5054072;28;19925;-34
2024/01/04 07:40:18;;;;;;;;;;;4.90;99.90;;;;;;5054942;28;19994;-34
2024/01/04 07:42:45;;;;;;;;;;;4.90;99.90;;;;;;5053275;28;19925;-34
2024/01/04 07:45:11;;;;;;;;;;;4.90;99.90;;;;;;5054675;28;20302;-34
2024/01/04 07:47:38;;;;;;;;;;;4.90;99.90;;;;;;5053107;28;19925;-33
2024/01/04 07:50:08;;;;;;;;;;;5.00;99.90;;;;;;5055794;28;20450;-34
2024/01/04 07:52:34;;;;;;;;;;;4.90;99.90;;;;;;5054131;28;19924;-33
2024/01/04 07:55:01;;;;;;;;;;;4.90;99.90;;;;;;5050881;28;19955;-34
2024/01/04 07:57:28;;;;;;;;;;;4.90;99.90;;;;;;5052440;28;20007;-33
2024/01/04 07:59:55;;;;;;;;;;;4.90;99.90;;;;;;5055546;28;20384;-33
2024/01/04 08:02:22;;;;;;;;;;;4.90;99.90;;;;;;5055446;28;20369;-34
2024/01/04 08:04:48;;;;;;;;;;;4.90;99.90;;;;;;5049984;28;19932;-34
2024/01/04 08:07:16;;;;;;;;;;;4.80;99.90;;;;;;5066796;28;19974;-35
2024/01/04 08:09:45;;;;;;;;;;;4.90;99.90;;;;;;5052399;28;19971;-34
2024/01/04 08:12:12;;;;;;;;;;;4.90;99.90;;;;;;5055627;28;19924;-34
2024/01/04 08:14:39;;;;;;;;;;;4.90;99.90;;;;;;5057279;28;19936;-36
2024/01/04 08:17:05;;;;;;;;;;;4.80;99.90;;;;;;5062852;28;19979;-34
2024/01/04 08:19:32;;;;;;;;;;;4.80;99.90;;;;;;5055911;28;19995;-35
2024/01/04 08:21:59;;;;;;;;;;;4.80;99.90;;;;;;5051564;28;19978;-34
2024/01/04 08:24:28;;;;;;;;;;;4.90;99.90;;;;;;5059945;28;19970;-34
2024/01/04 08:26:55;;;;;;;;;;;4.90;99.90;;;;;;5051682;28;19933;-36
2024/01/04 08:29:21;;;;;;;;;;;4.90;99.90;;;;;;5052736;28;19982;-35
2024/01/04 08:31:48;;;;;;;;;;;4.80;99.90;;;;;;5053506;28;20292;-34
2024/01/04 08:34:15;;;;;;;;;;;4.90;99.90;;;;;;5054199;28;19925;-36
2024/01/04 08:36:41;;;;;;;;;;;4.90;99.90;;;;;;5053746;28;19987;-35
2024/01/04 08:39:10;;;;;;;;;;;4.90;99.90;;;;;;5052589;28;19979;-34
2024/01/04 08:41:38;;;;;;;;;;;4.90;99.90;;;;;;5054411;28;20327;-34
2024/01/04 08:44:05;;;;;;;;;;;4.90;99.90;;;;;;5052958;28;20339;-35
2024/01/04 08:46:36;;;;;;;;;;;4.90;99.90;;;;;;5053417;28;19990;-35
2024/01/04 08:49:04;;;;;;;;;;;4.90;99.90;;;;;;5053393;28;19986;-33
2024/01/04 08:51:30;;;;;;;;;;;4.90;99.90;;;;;;5053635;28;19925;-34
2024/01/04 08:53:57;;;;;;;;;;;5.00;99.90;;;;;;5051249;28;19975;-35
2024/01/04 08:56:23;;;;;;;;;;;4.90;99.90;;;;;;5051933;28;19929;-33
2024/01/04 08:58:52;;;;;;;;;;;5.00;99.90;;;;;;5035049;28;20359;-34
2024/01/04 09:01:19;;;;;;;;;;;5.00;99.90;;;;;;5034181;28;19925;-35
2024/01/04 09:03:46;;;;;;;;;;;5.00;99.90;;;;;;5050957;28;19925;-34
2024/01/04 09:06:13;;;;;;;;;;;5.00;99.90;;;;;;5052802;28;19924;-33
2024/01/04 09:08:39;;;;;;;;;;;5.00;99.90;;;;;;5053462;28;19979;-34
2024/01/04 09:11:06;;;;;;;;;;;5.00;99.90;;;;;;5052594;28;19924;-33
2024/01/04 09:13:33;;;;;;;;;;;5.00;99.90;;;;;;5053519;28;20312;-34
2024/01/04 09:16:01;;;;;;;;;;;5.10;99.90;;;;;;5053345;28;19971;-34
2024/01/04 09:18:28;;;;;;;;;;;5.00;99.90;;;;;;5054348;28;19924;-33
2024/01/04 09:20:54;;;;;;;;;;;5.10;99.90;;;;;;5051351;28;19972;-33
2024/01/04 09:23:21;;;;;;;;;;;5.10;99.90;;;;;;5045518;28;19929;-34
2024/01/04 09:25:48;;;;;;;;;;;5.10;99.90;;;;;;5052372;28;19924;-32
2024/01/04 09:28:14;;;;;;;;;;;5.10;99.90;;;;;;5053238;28;20300;-33
2024/01/04 09:30:41;;;;;;;;;;;5.10;99.90;;;;;;5053395;28;19925;-34
2024/01/04 09:33:09;;;;;;;;;;;5.20;99.90;;;;;;5053398;28;19925;-35
2024/01/04 09:35:36;;;;;;;;;;;5.20;99.90;;;;;;5053417;28;19972;-34
2024/01/04 09:38:02;;;;;;;;;;;5.20;99.90;;;;;;5051973;28;20278;-34
2024/01/04 09:40:29;;;;;;;;;;;5.20;99.90;;;;;;5052768;28;20385;-33
2024/01/04 09:42:56;;;;;;;;;;;5.20;99.90;;;;;;5053097;28;19924;-35
2024/01/04 09:45:23;;;;;;;;;;;5.20;99.90;;;;;;5052305;28;19989;-34
2024/01/04 09:47:51;;;;;;;;;;;5.20;99.90;;;;;;5054112;28;19986;-35
2024/01/04 09:50:19;;;;;;;;;;;5.20;99.90;;;;;;5052145;28;20446;-38
2024/01/04 09:52:45;;;;;;;;;;;5.20;99.90;;;;;;5050844;28;19933;-34
2024/01/04 09:55:12;;;;;;;;;;;5.20;99.90;;;;;;5052073;28;19928;-34
2024/01/04 09:57:39;;;;;;;;;;;5.30;99.90;;;;;;5053035;28;19925;-35
2024/01/04 10:00:08;;;;;;;;;;;5.20;99.90;;;;;;5052917;28;19924;-34
2024/01/04 10:02:35;;;;;;;;;;;5.20;99.90;;;;;;5043492;28;19932;-34
2024/01/04 10:05:01;;;;;;;;;;;5.20;99.90;;;;;;5033890;28;20343;-35
2024/01/04 10:07:30;;;;;;;;;;;5.10;99.90;;;;;;5035163;28;19929;-35
2024/01/04 10:09:59;;;;;;;;;;;5.10;99.90;;;;;;5052394;28;19924;-34
2024/01/04 10:12:25;;;;;;;;;;;5.20;99.90;;;;;;5051441;28;20024;-35
2024/01/04 10:14:52;;;;;;;;;;;5.20;99.90;;;;;;5053414;28;19925;-35
2024/01/04 10:17:19;;;;;;;;;;;5.30;99.90;;;;;;5052423;28;19979;-34
2024/01/04 10:19:46;;;;;;;;;;;5.30;99.90;;;;;;5050485;28;19994;-33
2024/01/04 10:22:12;;;;;;;;;;;5.30;99.90;;;;;;5052203;28;19947;-33
2024/01/04 10:24:43;;;;;;;;;;;5.40;99.90;;;;;;5050856;28;19955;-35
2024/01/04 10:27:10;;;;;;;;;;;5.30;99.90;;;;;;5052681;28;19929;-34
2024/01/04 10:29:39;;;;;;;;;;;5.30;99.90;;;;;;5053479;28;19933;-34
2024/01/04 10:32:08;;;;;;;;;;;5.30;99.90;;;;;;5051483;28;20382;-35
2024/01/04 10:34:35;;;;;;;;;;;5.30;99.90;;;;;;5051734;28;20031;-32
2024/01/04 10:37:09;;;;;;;;;;;5.30;99.90;;;;;;5052950;28;19931;-34
2024/01/04 10:39:36;;;;;;;;;;;5.30;99.90;;;;;;5053301;28;20011;-33
2024/01/04 10:42:05;;;;;;;;;;;5.40;99.90;;;;;;5051249;28;20010;-34
2024/01/04 10:44:33;;;;;;;;;;;5.30;99.90;;;;;;5046546;28;20537;-33
2024/01/04 10:47:01;;;;;;;;;;;5.30;99.90;;;;;;5050504;28;19925;-34
2024/01/04 10:49:27;;;;;;;;;;;5.30;99.90;;;;;;5052833;28;20346;-33
2024/01/04 10:51:55;;;;;;;;;;;5.30;99.90;;;;;;5051255;28;20059;-35
2024/01/04 10:54:22;;;;;;;;;;;5.40;99.90;;;;;;5051591;28;20438;-30
2024/01/04 10:56:49;;;;;;;;;;;5.40;99.90;;;;;;5051488;28;19978;-33
2024/01/04 10:59:17;;;;;;;;;;;5.40;99.90;;;;;;5050505;28;19974;-35
2024/01/04 11:01:44;;;;;;;;;;;5.40;99.90;;;;;;5056001;28;20368;-33
2024/01/04 11:04:10;;;;;;;;;;;5.40;99.90;;;;;;5051659;28;19978;-33
2024/01/04 11:06:40;;;;;;;;;;;5.50;99.90;;;;;;5052368;28;20384;-33
2024/01/04 11:09:06;;;;;;;;;;;5.40;99.90;;;;;;5051608;28;20288;-34
2024/01/04 11:11:36;;;;;;;;;;;5.40;99.90;;;;;;5051355;28;20332;-34
2024/01/04 11:14:03;;;;;;;;;;;5.50;99.90;;;;;;5052315;28;20372;-35
2024/01/04 11:16:38;;;;;;;;;;;5.50;99.90;;;;;;5050479;28;20427;-33
2024/01/04 11:19:05;;;;;;;;;;;5.50;99.90;;;;;;5049645;28;19986;-34
2024/01/04 11:21:34;;;;;;;;;;;5.60;99.90;;;;;;5049270;28;20009;-34
2024/01/04 11:24:02;;;;;;;;;;;5.70;99.90;;;;;;5051117;28;19924;-34
2024/01/04 11:26:29;;;;;;;;;;;5.70;99.90;;;;;;5051145;28;20376;-35
2024/01/04 11:28:56;;;;;;;;;;;5.70;99.90;;;;;;5049132;28;19924;-33
2024/01/04 11:31:24;;;;;;;;;;;5.60;99.90;;;;;;5048376;28;19931;-35
2024/01/04 11:33:52;;;;;;;;;;;5.70;99.90;;;;;;5039884;28;19936;-36
2024/01/04 11:36:19;;;;;;;;;;;5.80;99.90;;;;;;5033229;28;19925;-31
2024/01/04 11:38:46;;;;;;;;;;;5.80;99.90;;;;;;5051044;28;19925;-32
2024/01/04 11:41:12;;;;;;;;;;;5.90;99.90;;;;;;5052241;28;20384;-35
2024/01/04 11:43:39;;;;;;;;;;;5.90;99.90;;;;;;5051073;28;19925;-33
2024/01/04 11:46:17;;;;;;;;;;;6.00;99.90;;;;;;5049535;28;19979;-33
2024/01/04 11:48:47;;;;;;;;;;;5.90;99.90;;;;;;5049958;28;19933;-33
2024/01/04 11:51:15;;;;;;;;;;;5.90;99.90;;;;;;5050470;28;19978;-34
2024/01/04 11:53:42;;;;;;;;;;;5.90;99.90;;;;;;5049699;28;19971;-33
2024/01/04 11:56:09;;;;;;;;;;;5.90;99.90;;;;;;5050445;28;19974;-34
2024/01/04 11:58:35;;;;;;;;;;;5.80;99.90;;;;;;5050303;28;19925;-33
2024/01/04 12:01:02;;;;;;;;;;;5.90;99.90;;;;;;5050955;28;19967;-34
2024/01/04 12:03:29;;;;;;;;;;;5.80;99.90;;;;;;5050493;28;19960;-35
2024/01/04 12:05:56;;;;;;;;;;;5.80;99.90;;;;;;5052185;28;20275;-34
2024/01/04 12:08:24;;;;;;;;;;;5.80;99.90;;;;;;5050093;28;19976;-34
2024/01/04 12:10:51;;;;;;;;;;;5.80;99.90;;;;;;5051940;28;20414;-33
2024/01/04 12:13:18;;;;;;;;;;;5.90;99.90;;;;;;5049522;28;19925;-33
2024/01/04 12:15:45;;;;;;;;;;;5.90;99.90;;;;;;5050552;28;19975;-33
2024/01/04 12:18:12;;;;;;;;;;;5.90;99.90;;;;;;5050046;28;20426;-33
2024/01/04 12:20:38;;;;;;;;;;;5.90;99.90;;;;;;5053746;28;19925;-34
2024/01/04 12:23:06;;;;;;;;;;;6.00;99.90;;;;;;5052169;28;20422;-33
2024/01/04 12:25:34;;;;;;;;;;;6.00;99.90;;;;;;5054621;28;20011;-35
2024/01/04 12:28:01;;;;;;;;;;;6.00;99.90;;;;;;5054485;28;19972;-34
2024/01/04 12:30:28;;;;;;;;;;;6.00;99.90;;;;;;5053475;28;19929;-34
2024/01/04 12:32:56;;;;;;;;;;;6.00;99.90;;;;;;5050702;28;20312;-33
2024/01/04 12:35:22;;;;;;;;;;;6.00;99.90;;;;;;5051731;28;19925;-35
2024/01/04 12:37:58;;;;;;;;;;;6.00;99.90;;;;;;5053687;28;20345;-35
2024/01/04 12:40:25;;;;;;;;;;;6.00;99.90;;;;;;5054335;28;19932;-35
2024/01/04 12:42:53;;;;;;;;;;;6.10;99.90;;;;;;5055192;28;20452;-36
2024/01/04 12:45:20;;;;;;;;;;;6.10;99.90;;;;;;5055249;28;19925;-34
2024/01/04 12:47:46;;;;;;;;;;;6.10;99.90;;;;;;5054211;28;19931;-33
2024/01/04 12:50:18;;;;;;;;;;;6.10;99.90;;;;;;5054053;28;19964;-34
2024/01/04 12:52:45;;;;;;;;;;;6.10;99.90;;;;;;5052694;28;19976;-34
2024/01/04 12:55:12;;;;;;;;;;;6.20;99.90;;;;;;5051358;28;19979;-35
2024/01/04 12:57:39;;;;;;;;;;;6.20;99.90;;;;;;5053889;28;19925;-34
2024/01/04 13:00:08;;;;;;;;;;;6.20;99.90;;;;;;5053818;28;19932;-34
2024/01/04 13:02:34;;;;;;;;;;;6.10;99.90;;;;;;5052478;28;20000;-35
2024/01/04 13:05:01;;;;;;;;;;;6.10;99.90;;;;;;5053648;28;20368;-34
2024/01/04 13:07:28;;;;;;;;;;;6.10;99.90;;;;;;5051362;28;19925;-35
2024/01/04 13:09:55;;;;;;;;;;;6.10;99.90;;;;;;5053471;28;19935;-35
2024/01/04 13:12:22;;;;;;;;;;;6.10;99.90;;;;;;5052418;28;19971;-34
2024/01/04 13:14:48;;;;;;;;;;;6.10;99.90;;;;;;5052161;28;19928;-34
2024/01/04 13:17:16;;;;;;;;;;;6.10;99.90;;;;;;5052431;28;19961;-34
2024/01/04 13:19:43;;;;;;;;;;;6.10;99.90;;;;;;5054335;28;19925;-35
2024/01/04 13:22:10;;;;;;;;;;;6.20;99.90;;;;;;5052700;28;19979;-35
2024/01/04 13:24:37;;;;;;;;;;;6.20;99.90;;;;;;5054411;28;19924;-35
2024/01/04 13:27:04;;;;;;;;;;;6.20;99.90;;;;;;5053129;28;19929;-34
2024/01/04 13:29:30;;;;;;;;;;;6.20;99.90;;;;;;5053356;28;20372;-34
2024/01/04 13:31:57;;;;;;;;;;;6.20;99.90;;;;;;5049803;28;19943;-34
2024/01/04 13:34:25;;;;;;;;;;;6.20;99.90;;;;;;5052367;28;19925;-34
2024/01/04 13:36:51;;;;;;;;;;;6.10;99.90;;;;;;5048203;28;19924;-34
2024/01/04 13:39:18;;;;;;;;;;;6.10;99.90;;;;;;5051866;28;19994;-36
2024/01/04 13:41:45;;;;;;;;;;;6.10;99.90;;;;;;5052542;28;19974;-33
2024/01/04 13:44:12;;;;;;;;;;;6.10;99.90;;;;;;5054125;28;19931;-34
2024/01/04 13:46:38;;;;;;;;;;;6.10;99.90;;;;;;5053410;28;19924;-34
2024/01/04 13:49:05;;;;;;;;;;;6.10;99.90;;;;;;5049721;28;19929;-35
2024/01/04 13:51:33;;;;;;;;;;;6.10;99.90;;;;;;5053337;28;20372;-35
2024/01/04 13:54:00;;;;;;;;;;;6.10;99.90;;;;;;5050464;28;19936;-34
2024/01/04 13:56:26;;;;;;;;;;;6.10;99.90;;;;;;5039477;28;19929;-34
2024/01/04 13:58:53;;;;;;;;;;;6.10;99.90;;;;;;5047742;28;19925;-34
2024/01/04 14:01:20;;;;;;;;;;;6.20;99.90;;;;;;5051908;28;19964;-34
2024/01/04 14:03:46;;;;;;;;;;;6.10;99.90;;;;;;5050728;28;20331;-34
2024/01/04 14:06:14;;;;;;;;;;;6.10;99.90;;;;;;5035705;28;20274;-35
2024/01/04 14:08:45;;;;;;;;;;;6.10;99.90;;;;;;5052159;28;19925;-35
2024/01/04 14:11:12;;;;;;;;;;;6.10;99.90;;;;;;5052545;28;19952;-36
2024/01/04 14:13:38;;;;;;;;;;;6.10;99.90;;;;;;5052147;28;19925;-35
2024/01/04 14:16:05;;;;;;;;;;;6.10;99.90;;;;;;5051237;28;20147;-34
2024/01/04 14:18:32;;;;;;;;;;;6.10;99.90;;;;;;5050789;28;19925;-36
2024/01/04 14:20:58;;;;;;;;;;;6.10;99.90;;;;;;5049981;28;19924;-35
2024/01/04 14:23:25;;;;;;;;;;;6.10;99.90;;;;;;5051900;28;20431;-33
2024/01/04 14:25:53;;;;;;;;;;;6.00;99.90;;;;;;5051246;28;19929;-35
2024/01/04 14:28:20;;;;;;;;;;;6.00;99.90;;;;;;5050940;28;19925;-34
2024/01/04 14:30:46;;;;;;;;;;;6.00;99.90;;;;;;5050909;28;19979;-36